createdAt,value
2019-04-05T00:00:47.866Z,39.35
2019-04-05T00:03:16.550Z,41.00
2019-04-05T00:05:45.373Z,42.88
2019-04-05T00:08:14.390Z,43.52
2019-04-05T00:10:43.226Z,42.35
2019-04-05T00:13:12.168Z,43.15
2019-04-05T00:15:40.951Z,46.08
2019-04-05T00:18:09.606Z,50.67
2019-04-05T00:20:38.648Z,43.28
2019-04-05T00:23:07.593Z,44.27
2019-04-05T00:25:36.369Z,49.38
2019-04-05T00:28:05.169Z,42.35
2019-04-05T00:30:36.295Z,48.98
2019-04-05T00:33:05.141Z,43.97
2019-04-05T00:35:33.840Z,47.20
2019-04-05T00:38:02.533Z,49.20
2019-04-05T00:40:31.300Z,51.88
2019-04-05T00:43:00.054Z,49.48
2019-04-05T00:45:28.963Z,48.73
2019-04-05T00:47:57.927Z,51.30
2019-04-05T00:50:26.710Z,47.67
2019-04-05T00:52:55.698Z,47.03
2019-04-05T00:55:24.458Z,46.28
2019-04-05T00:57:53.304Z,46.73
2019-04-05T01:00:22.517Z,55.78
2019-04-05T01:02:51.542Z,49.83
2019-04-05T01:05:20.249Z,61.20
2019-04-05T01:07:49.174Z,45.17
2019-04-05T01:10:18.777Z,50.60
2019-04-05T01:12:48.047Z,54.85
2019-04-05T01:15:17.187Z,50.40
2019-04-05T01:17:46.181Z,53.28
2019-04-05T01:20:15.086Z,52.13
2019-04-05T01:22:46.418Z,51.15
2019-04-05T01:25:15.814Z,56.15
2019-04-05T01:27:44.911Z,59.03
2019-04-05T01:30:14.995Z,53.90
2019-04-05T01:32:43.994Z,53.08
2019-04-05T01:35:13.186Z,61.83
2019-04-05T01:37:42.702Z,56.73
2019-04-05T01:40:11.911Z,55.10
2019-04-05T01:42:41.448Z,53.60
2019-04-05T01:45:10.484Z,52.78
2019-04-05T01:47:39.405Z,52.25
2019-04-05T01:50:08.947Z,61.60
2019-04-05T01:52:38.175Z,57.95
2019-04-05T01:55:08.045Z,51.40
2019-04-05T01:57:36.975Z,57.67
2019-04-05T02:00:07.236Z,65.20
2019-04-05T02:02:35.972Z,65.22
2019-04-05T02:05:06.459Z,54.33
2019-04-05T02:07:35.455Z,57.53
2019-04-05T02:10:05.050Z,57.50
2019-04-05T02:12:34.488Z,61.55
2019-04-05T02:15:03.592Z,61.42
2019-04-05T02:17:32.350Z,62.30
2019-04-05T02:20:01.113Z,48.90
2019-04-05T02:22:29.803Z,70.05
2019-04-05T02:24:58.572Z,61.63
2019-04-05T02:27:27.901Z,58.00
2019-04-05T02:29:56.917Z,56.25
2019-04-05T02:32:25.685Z,55.78
2019-04-05T02:34:54.634Z,75.75
2019-04-05T02:37:23.974Z,55.25
2019-04-05T02:39:52.972Z,53.42
2019-04-05T02:42:22.158Z,60.83
2019-04-05T02:44:52.439Z,58.00
2019-04-05T02:47:22.111Z,56.90
2019-04-05T02:49:52.462Z,56.13
2019-04-05T02:52:22.190Z,58.17
2019-04-05T02:54:52.897Z,55.35
2019-04-05T02:57:22.805Z,67.85
2019-04-05T02:59:52.797Z,56.80
2019-04-05T03:02:21.997Z,56.83
2019-04-05T03:04:50.689Z,54.38
2019-04-05T03:07:19.781Z,52.70
2019-04-05T03:09:49.413Z,51.15
2019-04-05T03:12:19.216Z,52.58
2019-04-05T03:14:51.408Z,47.45
2019-04-05T03:20:09.823Z,47.00
2019-04-05T03:22:40.853Z,47.73
2019-04-05T03:25:09.689Z,49.80
2019-04-05T03:27:39.635Z,43.80
2019-04-05T03:30:08.782Z,46.77
2019-04-05T03:32:38.447Z,46.85
2019-04-05T03:35:07.372Z,44.08
2019-04-05T03:37:36.239Z,42.65
2019-04-05T03:40:05.937Z,44.18
2019-04-05T03:42:35.646Z,40.30
2019-04-05T03:45:04.659Z,43.68
2019-04-05T03:47:33.477Z,45.20
2019-04-05T03:50:02.337Z,48.42
2019-04-05T03:52:31.828Z,46.55
2019-04-05T03:55:00.581Z,44.30
2019-04-05T03:57:29.955Z,46.02
2019-04-05T04:00:01.523Z,45.15
2019-04-05T04:02:30.712Z,43.83
2019-04-05T04:04:59.778Z,42.13
2019-04-05T04:07:28.713Z,40.17
2019-04-05T04:09:57.540Z,40.73
2019-04-05T04:12:26.388Z,37.93
2019-04-05T04:14:57.404Z,40.28
2019-04-05T04:17:26.501Z,43.20
2019-04-05T04:19:55.491Z,41.92
2019-04-05T04:22:31.236Z,42.90
2019-04-05T04:25:00.750Z,41.08
2019-04-05T04:27:30.103Z,40.85
2019-04-05T04:30:00.518Z,40.88
2019-04-05T04:32:29.960Z,36.20
2019-04-05T04:34:59.191Z,49.85
2019-04-05T04:37:28.499Z,45.85
2019-04-05T04:39:57.840Z,41.02
2019-04-05T04:42:27.133Z,35.92
2019-04-05T04:44:55.973Z,36.17
2019-04-05T04:47:27.405Z,38.10
2019-04-05T04:49:57.899Z,33.60
2019-04-05T04:52:31.038Z,30.68
2019-04-05T04:54:59.479Z,34.30
2019-04-05T04:57:28.439Z,33.88
2019-04-05T04:59:57.633Z,32.40
2019-04-05T05:02:26.882Z,33.80
2019-04-05T05:04:55.733Z,31.90
2019-04-05T05:07:24.499Z,31.12
2019-04-05T05:09:53.336Z,31.55
2019-04-05T05:12:22.438Z,33.70
2019-04-05T05:14:51.209Z,33.95
2019-04-05T05:17:20.075Z,32.23
2019-04-05T05:19:49.107Z,31.20
2019-04-05T05:22:17.980Z,30.65
2019-04-05T05:24:47.089Z,29.70
2019-04-05T05:27:16.054Z,29.40
2019-04-05T05:29:45.329Z,30.68
2019-04-05T05:32:14.530Z,31.05
2019-04-05T05:34:43.376Z,29.82
2019-04-05T05:37:12.413Z,28.57
2019-04-05T05:39:41.085Z,27.87
2019-04-05T05:42:09.793Z,29.65
2019-04-05T05:44:38.725Z,29.60
2019-04-05T05:47:07.725Z,29.40
2019-04-05T05:49:36.678Z,28.10
2019-04-05T05:52:05.749Z,29.75
2019-04-05T05:54:34.530Z,28.27
2019-04-05T05:57:03.677Z,33.75
2019-04-05T05:59:32.394Z,28.67
2019-04-05T06:02:03.680Z,27.80
2019-04-05T06:04:32.405Z,28.40
2019-04-05T06:07:01.587Z,26.85
2019-04-05T06:09:30.799Z,25.48
2019-04-05T06:11:59.671Z,27.02
2019-04-05T06:14:28.639Z,25.92
2019-04-05T06:16:57.337Z,27.58
2019-04-05T06:19:26.073Z,25.25
2019-04-05T06:21:54.856Z,27.55
2019-04-05T06:24:23.572Z,26.30
2019-04-05T06:26:53.041Z,27.93
2019-04-05T06:29:21.737Z,27.73
2019-04-05T06:31:50.538Z,29.25
2019-04-05T06:34:19.587Z,25.50
2019-04-05T06:36:51.086Z,28.30
2019-04-05T06:39:20.649Z,29.67
2019-04-05T06:41:49.522Z,30.85
2019-04-05T06:44:18.222Z,30.95
2019-04-05T06:46:46.914Z,29.00
2019-04-05T06:49:15.641Z,28.92
2019-04-05T06:51:44.596Z,30.48
2019-04-05T06:54:13.773Z,30.20
2019-04-05T06:56:42.703Z,32.20
2019-04-05T06:59:11.767Z,29.32
2019-04-05T07:01:40.462Z,28.05
2019-04-05T07:04:09.401Z,30.65
2019-04-05T07:06:38.071Z,31.35
2019-04-05T07:09:07.284Z,30.12
2019-04-05T07:11:36.056Z,29.55
2019-04-05T07:14:04.818Z,31.25
2019-04-05T07:16:33.669Z,29.10
2019-04-05T07:19:02.706Z,30.10
2019-04-05T07:21:31.394Z,29.95
2019-04-05T07:24:00.342Z,30.88
2019-04-05T07:26:29.554Z,31.05
2019-04-05T07:28:58.378Z,29.92
2019-04-05T07:31:27.051Z,30.92
2019-04-05T07:33:56.313Z,28.42
2019-04-05T07:36:25.517Z,31.55
2019-04-05T07:38:54.220Z,34.40
2019-04-05T07:41:23.078Z,28.50
2019-04-05T07:43:51.820Z,31.80
2019-04-05T07:46:20.586Z,28.90
2019-04-05T07:48:49.294Z,29.25
2019-04-05T07:51:17.982Z,30.75
2019-04-05T07:53:46.691Z,28.92
2019-04-05T07:56:15.431Z,30.60
2019-04-05T07:58:44.727Z,28.95
2019-04-05T08:01:14.354Z,31.48
2019-04-05T08:03:43.210Z,32.63
2019-04-05T08:06:12.556Z,31.73
2019-04-05T08:08:57.647Z,33.20
2019-04-05T08:11:27.482Z,34.40
2019-04-05T08:13:58.224Z,34.15
2019-04-05T08:16:27.055Z,34.10
2019-04-05T08:18:58.057Z,33.30
2019-04-05T08:21:26.670Z,35.13
2019-04-05T08:23:55.410Z,34.55
2019-04-05T08:26:24.321Z,33.20
2019-04-05T08:28:53.274Z,34.63
2019-04-05T08:31:22.465Z,31.50
2019-04-05T08:33:51.940Z,34.70
2019-04-05T08:36:20.724Z,32.65
2019-04-05T08:38:49.739Z,36.63
2019-04-05T08:41:18.417Z,34.45
2019-04-05T08:43:47.690Z,35.40
2019-04-05T08:46:16.615Z,33.70
2019-04-05T08:48:45.363Z,34.10
2019-04-05T08:51:14.286Z,34.08
2019-04-05T08:53:42.985Z,35.63
2019-04-05T08:56:11.934Z,33.55
2019-04-05T08:58:40.656Z,34.08
2019-04-05T09:01:09.391Z,34.15
2019-04-05T09:03:38.373Z,32.53
2019-04-05T09:06:07.322Z,31.93
2019-04-05T09:08:36.272Z,32.42
2019-04-05T09:11:05.044Z,31.65
2019-04-05T09:13:33.714Z,31.70
2019-04-05T09:16:02.654Z,32.23
2019-04-05T09:18:31.409Z,32.30
2019-04-05T09:21:00.110Z,32.83
2019-04-05T09:23:28.815Z,32.03
2019-04-05T09:25:57.766Z,32.40
2019-04-05T09:28:26.475Z,33.67
2019-04-05T09:30:56.937Z,34.20
2019-04-05T09:33:25.631Z,34.05
2019-04-05T09:35:54.334Z,36.38
2019-04-05T09:38:23.027Z,33.50
2019-04-05T09:40:51.856Z,30.52
2019-04-05T09:43:20.748Z,32.08
2019-04-05T09:45:49.528Z,33.25
2019-04-05T09:48:18.457Z,33.18
2019-04-05T09:50:47.418Z,31.57
2019-04-05T09:53:16.243Z,33.88
2019-04-05T09:55:45.022Z,34.03
2019-04-05T09:58:13.664Z,34.55
2019-04-05T10:00:42.371Z,34.38
2019-04-05T10:03:11.092Z,36.10
2019-04-05T10:05:40.074Z,33.45
2019-04-05T10:08:08.966Z,34.65
2019-04-05T10:10:37.988Z,35.58
2019-04-05T10:13:09.640Z,34.53
2019-04-05T10:15:37.171Z,33.85
2019-04-05T10:18:06.006Z,35.45
2019-04-05T10:20:34.989Z,33.53
2019-04-05T10:23:03.825Z,34.98
2019-04-05T10:25:32.764Z,35.33
2019-04-05T10:28:01.944Z,34.83
2019-04-05T10:30:30.720Z,32.95
2019-04-05T10:32:59.643Z,34.40
2019-04-05T10:35:28.357Z,36.42
2019-04-05T10:37:58.482Z,36.88
2019-04-05T10:40:27.369Z,35.73
2019-04-05T10:42:56.095Z,36.08
2019-04-05T10:45:25.297Z,36.75
2019-04-05T10:47:53.976Z,35.10
2019-04-05T10:50:23.073Z,32.70
2019-04-05T10:52:52.021Z,33.58
2019-04-05T10:55:20.978Z,34.48
2019-04-05T10:57:49.920Z,35.68
2019-04-05T11:00:19.462Z,34.73
2019-04-05T11:02:48.184Z,37.00
2019-04-05T11:05:17.037Z,37.45
2019-04-05T11:07:45.730Z,37.67
2019-04-05T11:10:15.105Z,35.23
2019-04-05T11:12:43.838Z,35.83
2019-04-05T11:15:15.112Z,34.65
2019-04-05T11:17:43.405Z,35.25
2019-04-05T11:20:21.099Z,33.05
2019-04-05T11:22:46.537Z,33.65
2019-04-05T11:25:14.585Z,33.02
2019-04-05T11:27:43.552Z,32.98
2019-04-05T11:30:14.363Z,37.45
2019-04-05T11:32:43.140Z,35.17
2019-04-05T11:35:14.917Z,34.38
2019-04-05T11:37:42.806Z,34.53
2019-04-05T11:40:13.067Z,34.27
2019-04-05T11:42:43.306Z,34.70
2019-04-05T11:45:12.145Z,34.53
2019-04-05T11:47:42.709Z,35.58
2019-04-05T11:50:12.801Z,32.67
2019-04-05T11:52:41.508Z,33.35
2019-04-05T11:55:10.607Z,32.20
2019-04-05T11:57:41.474Z,32.40
2019-04-05T12:00:16.182Z,33.48
2019-04-05T12:02:48.623Z,33.55
2019-04-05T12:05:20.348Z,33.02
2019-04-05T12:07:49.304Z,34.95
2019-04-05T12:10:19.528Z,33.58
2019-04-05T12:12:48.626Z,33.18
2019-04-05T12:15:17.471Z,35.35
2019-04-05T12:17:46.412Z,35.10
2019-04-05T12:20:15.822Z,34.05
2019-04-05T12:22:44.581Z,31.37
2019-04-05T12:25:13.600Z,31.57
2019-04-05T12:27:42.293Z,31.52
2019-04-05T12:30:13.563Z,34.35
2019-04-05T12:32:42.511Z,36.23
2019-04-05T12:35:11.385Z,32.30
2019-04-05T12:37:50.230Z,32.75
2019-04-05T12:40:11.322Z,32.63
2019-04-05T12:42:43.516Z,32.85
2019-04-05T12:45:15.267Z,32.63
2019-04-05T12:47:45.547Z,31.55
2019-04-05T12:50:15.394Z,31.45
2019-04-05T12:52:44.724Z,32.23
2019-04-05T12:55:13.874Z,33.25
2019-04-05T12:57:42.579Z,31.82
2019-04-05T13:00:14.705Z,33.38
2019-04-05T13:02:43.548Z,33.40
2019-04-05T13:05:14.980Z,32.25
2019-04-05T13:07:43.940Z,32.55
2019-04-05T13:10:13.769Z,33.53
2019-04-05T13:12:42.718Z,33.67
2019-04-05T13:15:16.869Z,30.68
2019-04-05T13:17:42.194Z,31.68
2019-04-05T13:20:11.642Z,32.63
2019-04-05T13:22:40.359Z,33.35
2019-04-05T13:25:11.091Z,33.30
2019-04-05T13:27:41.509Z,33.75
2019-04-05T13:30:10.268Z,34.40
2019-04-05T13:32:38.983Z,36.77
2019-04-05T13:35:08.321Z,35.13
2019-04-05T13:37:37.103Z,32.78
2019-04-05T13:40:07.357Z,34.55
2019-04-05T13:42:36.357Z,35.20
2019-04-05T13:45:05.649Z,33.92
2019-04-05T13:47:37.916Z,34.15
2019-04-05T13:50:06.248Z,31.87
2019-04-05T13:52:35.205Z,33.60
2019-04-05T13:55:03.992Z,32.70
2019-04-05T13:57:32.931Z,32.93
2019-04-05T14:00:01.622Z,34.23
2019-04-05T14:02:30.380Z,33.42
2019-04-05T14:04:59.355Z,40.35
2019-04-05T14:07:28.054Z,34.80
2019-04-05T14:09:56.984Z,38.55
2019-04-05T14:12:25.942Z,35.65
2019-04-05T14:14:54.908Z,36.03
2019-04-05T14:17:23.858Z,32.53
2019-04-05T14:19:52.568Z,36.00
2019-04-05T14:22:22.489Z,38.88
2019-04-05T14:24:52.550Z,36.90
2019-04-05T14:27:22.415Z,38.33
2019-04-05T14:29:51.614Z,38.40
2019-04-05T14:32:21.897Z,33.55
2019-04-05T14:34:54.766Z,33.58
2019-04-05T14:37:24.949Z,33.58
2019-04-05T14:39:53.137Z,30.85
2019-04-05T14:42:22.322Z,34.43
2019-04-05T14:44:51.021Z,35.05
2019-04-05T14:47:20.057Z,35.55
2019-04-05T14:49:48.880Z,34.20
2019-04-05T14:52:17.795Z,33.70
2019-04-05T14:54:46.580Z,33.73
2019-04-05T14:57:15.265Z,34.40
2019-04-05T14:59:44.200Z,37.53
2019-04-05T15:02:12.929Z,37.00
2019-04-05T15:04:41.854Z,36.17
2019-04-05T15:07:13.785Z,37.73
2019-04-05T15:09:42.487Z,33.90
2019-04-05T15:12:11.725Z,33.18
2019-04-05T15:14:41.120Z,33.45
2019-04-05T15:17:10.090Z,35.73
2019-04-05T15:19:39.212Z,36.58
2019-04-05T15:22:10.740Z,34.30
2019-04-05T15:24:38.487Z,35.25
2019-04-05T15:27:07.239Z,35.50
2019-04-05T15:29:35.931Z,36.15
2019-04-05T15:32:04.850Z,35.58
2019-04-05T15:34:33.872Z,35.17
2019-04-05T15:37:02.744Z,36.23
2019-04-05T15:39:32.299Z,36.90
2019-04-05T15:42:01.381Z,36.42
2019-04-05T15:44:30.094Z,35.52
2019-04-05T15:46:58.773Z,35.73
2019-04-05T15:49:27.474Z,35.38
2019-04-05T15:51:58.895Z,35.30
2019-04-05T15:54:28.932Z,37.25
2019-04-05T15:56:58.126Z,35.85
2019-04-05T15:59:27.172Z,37.58
2019-04-05T16:01:56.295Z,36.60
2019-04-05T16:04:25.131Z,38.48
2019-04-05T16:06:54.630Z,36.30
2019-04-05T16:09:24.069Z,37.25
2019-04-05T16:11:52.878Z,41.28
2019-04-05T16:14:22.147Z,39.18
2019-04-05T16:16:51.081Z,41.63
2019-04-05T16:19:19.776Z,41.08
2019-04-05T16:21:48.731Z,39.23
2019-04-05T16:24:17.431Z,44.63
2019-04-05T16:26:46.360Z,43.83
2019-04-05T16:29:15.189Z,44.35
2019-04-05T16:31:43.907Z,43.28
2019-04-05T16:34:13.237Z,40.48
2019-04-05T16:36:42.194Z,40.65
2019-04-05T16:39:20.929Z,43.05
2019-04-05T16:41:50.303Z,40.05
2019-04-05T16:44:19.000Z,42.00
2019-04-05T16:46:47.721Z,40.10
2019-04-05T16:49:16.628Z,39.78
2019-04-05T16:51:46.823Z,40.58
2019-04-05T16:54:16.334Z,43.33
2019-04-05T16:56:45.728Z,47.30
2019-04-05T16:59:15.232Z,45.63
2019-04-05T17:01:44.941Z,46.48
2019-04-05T17:04:17.244Z,47.70
2019-04-05T17:06:48.036Z,43.28
2019-04-05T17:09:17.008Z,40.83
2019-04-05T17:11:46.619Z,42.73
2019-04-05T17:14:16.252Z,43.75
2019-04-05T17:16:46.437Z,43.73
2019-04-05T17:19:16.685Z,47.40
2019-04-05T17:21:47.140Z,45.17
2019-04-05T17:24:18.068Z,48.38
2019-04-05T17:26:51.093Z,43.10
2019-04-05T17:29:21.812Z,45.67
2019-04-05T17:31:52.172Z,48.30
2019-04-05T17:34:21.776Z,44.25
2019-04-05T17:36:50.817Z,49.42
2019-04-05T17:39:19.761Z,47.23
2019-04-05T17:41:48.458Z,45.73
2019-04-05T17:44:17.235Z,47.38
2019-04-05T17:46:45.944Z,50.35
2019-04-05T17:49:14.880Z,47.67
2019-04-05T17:51:43.563Z,46.83
2019-04-05T17:54:13.031Z,47.27
2019-04-05T17:56:42.124Z,49.70
2019-04-05T17:59:10.876Z,64.22
2019-04-05T18:01:39.587Z,56.13
2019-04-05T18:04:08.894Z,43.23
2019-04-05T18:06:37.980Z,43.50
2019-04-05T18:09:10.140Z,45.90
2019-04-05T18:11:39.136Z,45.63
2019-04-05T18:14:08.289Z,46.08
2019-04-05T18:16:38.338Z,46.65
2019-04-05T18:19:07.477Z,48.25
2019-04-05T18:21:37.263Z,50.38
2019-04-05T18:24:07.146Z,48.48
2019-04-05T18:26:36.102Z,47.95
2019-04-05T18:29:04.860Z,50.83
2019-04-05T18:31:33.796Z,49.98
2019-04-05T18:34:02.465Z,51.02
2019-04-05T18:36:31.163Z,53.50
2019-04-05T18:39:00.099Z,56.23
2019-04-05T18:41:31.154Z,53.28
2019-04-05T18:43:59.837Z,52.75
2019-04-05T18:46:29.046Z,51.30
2019-04-05T18:48:57.726Z,48.83
2019-04-05T18:51:26.993Z,52.65
2019-04-05T18:53:55.678Z,50.78
2019-04-05T18:56:24.620Z,51.92
2019-04-05T18:58:53.328Z,50.63
2019-04-05T19:01:22.043Z,48.48
2019-04-05T19:03:50.789Z,51.10
2019-04-05T19:06:21.913Z,51.05
2019-04-05T19:08:50.586Z,49.80
2019-04-05T19:11:19.274Z,51.35
2019-04-05T19:14:00.615Z,49.50
2019-04-05T19:16:20.244Z,50.20
2019-04-05T19:18:48.917Z,50.20
2019-04-05T19:21:20.535Z,49.18
2019-04-05T19:23:51.393Z,53.20
2019-04-05T19:26:20.466Z,52.85
2019-04-05T19:28:49.456Z,55.00
2019-04-05T19:48:53.247Z,50.70
2019-04-05T19:51:22.581Z,51.05
2019-04-05T19:54:00.807Z,51.10
2019-04-05T19:56:21.984Z,51.50
2019-04-05T19:58:50.914Z,51.73
2019-04-05T20:01:19.650Z,53.48
2019-04-05T20:03:48.470Z,55.00
2019-04-05T20:06:17.175Z,54.93
2019-04-05T20:08:45.863Z,54.35
2019-04-05T20:11:15.053Z,55.52
2019-04-05T20:13:44.204Z,57.27
2019-04-05T20:16:12.981Z,57.33
2019-04-05T20:18:42.472Z,56.48
2019-04-05T20:21:11.429Z,58.83
2019-04-05T20:23:47.494Z,60.63
2019-04-05T20:26:11.045Z,58.98
2019-04-05T20:28:39.985Z,61.25
2019-04-05T20:31:08.672Z,55.90
2019-04-05T20:33:37.376Z,58.83
2019-04-05T20:36:06.145Z,56.10
2019-04-05T20:38:35.090Z,54.85
2019-04-05T20:41:03.791Z,56.85
2019-04-05T20:43:32.515Z,56.08
2019-04-05T20:46:01.449Z,54.95
2019-04-05T20:48:30.215Z,55.88
2019-04-05T20:50:59.139Z,54.03
2019-04-05T20:53:28.170Z,56.73
2019-04-05T20:55:56.945Z,57.60
2019-04-05T20:58:25.639Z,57.13
2019-04-05T21:00:54.680Z,58.50
2019-04-05T21:03:23.374Z,60.48
2019-04-05T21:05:52.409Z,60.30
2019-04-05T21:08:21.275Z,58.70
2019-04-05T21:10:49.975Z,57.95
2019-04-05T21:13:19.545Z,55.40
2019-04-05T21:15:48.216Z,56.08
2019-04-05T21:18:17.162Z,56.33
2019-04-05T21:20:46.322Z,64.77
2019-04-05T21:23:15.273Z,62.88
2019-04-05T21:25:44.196Z,61.73
2019-04-05T21:28:13.152Z,68.25
2019-04-05T21:30:41.841Z,65.52
2019-04-05T21:33:10.809Z,66.15
2019-04-05T21:35:39.574Z,64.47
2019-04-05T21:38:08.324Z,65.52
2019-04-05T21:40:37.249Z,66.65
2019-04-05T21:43:06.079Z,63.30
2019-04-05T21:45:34.816Z,62.93
2019-04-05T21:48:03.514Z,63.60
2019-04-05T21:50:32.202Z,59.83
2019-04-05T21:53:00.948Z,63.42
2019-04-05T21:55:29.578Z,62.38
2019-04-05T21:57:58.338Z,62.17
2019-04-05T22:00:33.429Z,58.23
2019-04-05T22:03:02.404Z,59.38
2019-04-05T22:05:31.108Z,60.45
2019-04-05T22:08:00.155Z,60.35
2019-04-05T22:10:31.893Z,60.30
2019-04-05T22:13:00.952Z,59.63
2019-04-05T22:15:29.639Z,61.00
2019-04-05T22:17:58.683Z,58.80
2019-04-05T22:20:27.869Z,60.33
2019-04-05T22:22:56.584Z,59.00
2019-04-05T22:25:25.971Z,60.65
2019-04-05T22:27:54.958Z,59.55
2019-04-05T22:30:23.718Z,55.83
2019-04-05T22:32:52.431Z,61.20
2019-04-05T22:35:21.412Z,60.33
2019-04-05T22:37:50.097Z,61.83
2019-04-05T22:40:18.797Z,68.45
2019-04-05T22:42:47.484Z,61.45
2019-04-05T22:45:16.252Z,68.30
2019-04-05T22:47:44.930Z,60.73
2019-04-05T22:50:13.725Z,59.35
2019-04-05T22:52:43.280Z,61.13
2019-04-05T22:55:12.247Z,59.65
2019-04-05T22:57:41.201Z,61.08
2019-04-05T23:00:10.963Z,58.85
2019-04-05T23:02:42.054Z,63.02
2019-04-05T23:05:11.014Z,62.77
2019-04-05T23:07:40.269Z,60.78
2019-04-05T23:10:10.101Z,56.55
2019-04-05T23:12:39.234Z,61.42
2019-04-05T23:15:08.688Z,60.70
2019-04-05T23:17:37.779Z,60.15
2019-04-05T23:20:07.299Z,61.40
2019-04-05T23:22:36.393Z,64.82
2019-04-05T23:25:05.316Z,59.65
2019-04-05T23:27:34.309Z,61.77
2019-04-05T23:30:03.972Z,64.17
2019-04-05T23:32:33.235Z,61.85
2019-04-05T23:35:02.230Z,66.70
2019-04-05T23:37:30.796Z,60.45
2019-04-05T23:39:59.515Z,62.62
2019-04-05T23:42:28.528Z,61.35
2019-04-05T23:44:57.838Z,64.62
2019-04-05T23:47:26.533Z,62.70
2019-04-05T23:49:56.834Z,65.45
2019-04-05T23:52:25.830Z,63.90
2019-04-05T23:54:54.960Z,61.90
2019-04-05T23:57:23.648Z,68.70
2019-04-05T23:59:52.663Z,65.22
